createdAt,value
2022-12-16T00:04:39.505Z,31.82
2022-12-16T00:10:01.482Z,31.72
2022-12-16T00:15:23.249Z,31.85
2022-12-16T00:20:50.008Z,31.46
2022-12-16T00:26:14.276Z,31.95
2022-12-16T00:31:36.188Z,31.53
2022-12-16T00:36:57.990Z,31.92
2022-12-16T00:42:19.677Z,31.78
2022-12-16T00:47:43.895Z,31.97
2022-12-16T00:53:06.326Z,31.89
2022-12-16T00:58:28.084Z,31.92
2022-12-16T01:03:49.847Z,32.12
2022-12-16T01:09:12.175Z,32.10
2022-12-16T01:14:36.901Z,31.79
2022-12-16T01:19:58.676Z,31.98
2022-12-16T01:25:20.414Z,31.78
2022-12-16T01:30:42.121Z,31.94
2022-12-16T01:36:06.661Z,32.11
2022-12-16T01:41:28.351Z,32.04
2022-12-16T01:46:53.951Z,32.17
2022-12-16T01:52:21.999Z,31.96
2022-12-16T01:57:55.029Z,31.90
2022-12-16T02:03:17.017Z,32.24
2022-12-16T02:08:38.708Z,32.18
2022-12-16T02:14:03.151Z,31.88
2022-12-16T02:19:30.698Z,32.32
2022-12-16T02:25:01.155Z,31.92
2022-12-16T02:30:50.928Z,31.85
2022-12-16T02:36:24.480Z,32.28
2022-12-16T02:41:57.700Z,32.32
2022-12-16T02:47:19.536Z,31.91
2022-12-16T02:52:44.527Z,32.32
2022-12-16T02:58:24.298Z,32.06
2022-12-16T03:04:00.681Z,31.99
2022-12-16T03:09:28.690Z,32.00
2022-12-16T03:14:54.091Z,32.15
2022-12-16T03:20:23.094Z,32.38
2022-12-16T03:25:47.920Z,32.24
2022-12-16T03:31:35.993Z,32.27
2022-12-16T03:37:02.551Z,32.12
2022-12-16T03:42:25.042Z,32.43
2022-12-16T03:47:51.222Z,32.36
2022-12-16T03:53:12.995Z,31.91
2022-12-16T03:58:35.624Z,32.28
2022-12-16T04:03:57.498Z,31.93
2022-12-16T04:09:20.801Z,31.93
2022-12-16T04:15:01.265Z,32.08
2022-12-16T04:20:51.009Z,31.91
2022-12-16T04:26:13.017Z,31.83
2022-12-16T04:31:34.862Z,31.61
2022-12-16T04:37:17.982Z,31.66
2022-12-16T04:42:57.818Z,31.64
2022-12-16T04:48:38.140Z,31.44
2022-12-16T04:54:18.505Z,31.41
2022-12-16T04:59:58.757Z,31.77
2022-12-16T05:05:39.306Z,31.42
2022-12-16T05:11:19.503Z,31.43
2022-12-16T05:17:00.141Z,31.32
2022-12-16T05:22:40.692Z,31.42
2022-12-16T05:28:21.293Z,31.80
2022-12-16T05:34:01.466Z,31.80
2022-12-16T05:39:41.910Z,31.88
2022-12-16T05:45:22.571Z,31.62
2022-12-16T05:51:02.525Z,31.51
2022-12-16T05:56:42.944Z,31.73
2022-12-16T06:02:23.537Z,31.93
2022-12-16T06:08:12.273Z,31.87
2022-12-16T06:13:52.227Z,31.53
2022-12-16T06:19:32.508Z,30.82
2022-12-16T06:25:12.611Z,30.16
2022-12-16T06:30:52.968Z,29.66
2022-12-16T06:36:33.391Z,29.55
2022-12-16T06:42:13.336Z,29.19
2022-12-16T06:47:53.797Z,29.35
2022-12-16T06:53:34.768Z,29.16
2022-12-16T06:59:14.900Z,28.90
2022-12-16T07:04:54.892Z,29.02
2022-12-16T07:10:35.381Z,29.21
2022-12-16T07:16:15.598Z,29.41
2022-12-16T07:21:55.685Z,29.65
2022-12-16T07:27:36.259Z,29.58
2022-12-16T07:33:33.733Z,29.44
2022-12-16T07:39:14.118Z,29.44
2022-12-16T07:44:54.108Z,29.16
2022-12-16T07:50:34.695Z,29.09
2022-12-16T07:56:14.869Z,28.72
2022-12-16T08:01:55.383Z,27.34
2022-12-16T08:07:35.587Z,27.23
2022-12-16T08:13:25.581Z,26.85
2022-12-16T08:19:10.732Z,27.00
2022-12-16T08:24:53.526Z,27.07
2022-12-16T08:30:36.434Z,27.10
2022-12-16T08:36:17.886Z,26.73
2022-12-16T08:41:58.001Z,26.67
2022-12-16T08:47:41.064Z,27.03
2022-12-16T08:53:21.245Z,26.35
2022-12-16T08:59:01.217Z,26.76
2022-12-16T09:04:41.756Z,26.60
2022-12-16T09:10:40.800Z,26.40
2022-12-16T09:16:21.042Z,26.37
2022-12-16T09:22:01.431Z,26.65
2022-12-16T09:27:41.768Z,26.66
2022-12-16T09:33:22.100Z,26.65
2022-12-16T09:39:02.159Z,27.08
2022-12-16T09:45:01.175Z,26.80
2022-12-16T09:50:47.037Z,26.40
2022-12-16T09:56:36.313Z,26.67
2022-12-16T10:02:16.885Z,26.76
2022-12-16T10:08:04.803Z,26.17
2022-12-16T10:13:58.551Z,25.87
2022-12-16T10:19:41.539Z,26.42
2022-12-16T10:25:30.235Z,26.38
2022-12-16T10:31:10.964Z,26.17
2022-12-16T10:36:53.957Z,26.39
2022-12-16T10:42:46.701Z,26.80
2022-12-16T10:48:29.599Z,26.31
2022-12-16T10:54:10.735Z,26.83
2022-12-16T10:59:57.582Z,26.72
2022-12-16T11:05:47.712Z,27.22
2022-12-16T11:11:41.621Z,27.22
2022-12-16T11:17:43.972Z,27.50
2022-12-16T11:23:44.267Z,27.43
2022-12-16T11:29:35.862Z,26.95
2022-12-16T11:35:19.565Z,27.00
2022-12-16T11:41:01.071Z,27.30
2022-12-16T11:46:45.858Z,27.54
2022-12-16T11:52:37.280Z,27.91
2022-12-16T11:58:31.749Z,28.05
2022-12-16T12:04:12.331Z,28.21
2022-12-16T12:10:00.038Z,28.47
2022-12-16T12:15:49.232Z,28.36
2022-12-16T12:21:35.628Z,28.67
2022-12-16T12:27:39.291Z,28.40
2022-12-16T12:33:51.728Z,28.39
2022-12-16T12:39:39.009Z,28.81
2022-12-16T12:45:42.291Z,28.65
2022-12-16T12:51:31.063Z,28.43
2022-12-16T12:57:12.697Z,28.32
2022-12-16T13:03:15.912Z,27.67
2022-12-16T13:08:56.468Z,27.12
2022-12-16T13:14:51.900Z,26.62
2022-12-16T13:20:59.620Z,26.28
2022-12-16T13:26:51.156Z,26.67
2022-12-16T13:32:38.683Z,26.24
2022-12-16T13:38:25.195Z,26.48
2022-12-16T13:44:15.892Z,26.70
2022-12-16T13:49:56.181Z,26.76
2022-12-16T13:55:42.328Z,27.22
2022-12-16T14:01:31.825Z,27.47
2022-12-16T14:07:12.511Z,27.23
2022-12-16T14:12:55.959Z,27.70
2022-12-16T14:18:47.609Z,27.88
2022-12-16T14:24:41.295Z,27.89
2022-12-16T14:30:33.554Z,28.16
2022-12-16T14:36:13.698Z,28.32
2022-12-16T14:41:53.873Z,28.60
2022-12-16T14:47:36.732Z,28.74
2022-12-16T14:53:50.113Z,28.90
2022-12-16T14:59:38.838Z,28.68
2022-12-16T15:05:19.736Z,28.93
2022-12-16T15:11:00.257Z,28.70
2022-12-16T15:16:49.357Z,28.98
2022-12-16T15:22:36.055Z,28.55
2022-12-16T15:28:16.280Z,28.29
2022-12-16T15:33:57.765Z,27.99
2022-12-16T15:39:56.170Z,28.37
2022-12-16T15:45:39.239Z,28.10
2022-12-16T15:51:19.285Z,27.56
2022-12-16T15:57:04.528Z,27.00
2022-12-16T16:02:48.287Z,26.97
2022-12-16T16:08:29.409Z,27.04
2022-12-16T16:14:14.111Z,26.89
2022-12-16T16:20:00.170Z,27.34
2022-12-16T16:25:44.009Z,27.17
2022-12-16T16:31:32.036Z,27.63
2022-12-16T16:37:15.093Z,27.84
2022-12-16T16:42:55.018Z,27.63
2022-12-16T16:48:37.155Z,27.95
2022-12-16T16:54:17.676Z,27.92
2022-12-16T16:59:57.924Z,28.06
2022-12-16T17:05:38.431Z,28.27
2022-12-16T17:11:19.036Z,28.63
2022-12-16T17:17:02.057Z,28.37
2022-12-16T17:22:42.669Z,28.54
2022-12-16T17:28:23.864Z,28.32
2022-12-16T17:34:04.010Z,28.56
2022-12-16T17:39:44.592Z,28.67
2022-12-16T17:45:28.246Z,28.27
2022-12-16T17:51:08.232Z,28.55
2022-12-16T17:56:48.422Z,28.46
2022-12-16T18:02:31.498Z,28.75
2022-12-16T18:08:11.898Z,28.57
2022-12-16T18:13:51.910Z,28.87
2022-12-16T18:19:34.540Z,28.35
2022-12-16T18:25:15.101Z,28.50
2022-12-16T18:30:56.157Z,28.68
2022-12-16T18:36:36.654Z,28.62
2022-12-16T18:42:16.724Z,28.68
2022-12-16T18:47:57.105Z,28.68
2022-12-16T18:53:37.856Z,28.87
2022-12-16T18:59:18.066Z,28.78
2022-12-16T19:04:58.647Z,29.23
2022-12-16T19:10:38.572Z,29.26
2022-12-16T19:16:19.124Z,29.70
2022-12-16T19:21:59.776Z,29.40
2022-12-16T19:27:39.826Z,29.79
2022-12-16T19:33:20.491Z,29.78
2022-12-16T19:39:00.436Z,29.78
2022-12-16T19:44:40.405Z,29.40
2022-12-16T19:50:21.081Z,29.32
2022-12-16T19:56:01.706Z,29.19
2022-12-16T20:01:41.591Z,28.70
2022-12-16T20:07:23.386Z,28.92
2022-12-16T20:13:03.485Z,29.06
2022-12-16T20:18:43.554Z,29.48
2022-12-16T20:24:24.187Z,29.24
2022-12-16T20:30:04.675Z,29.28
2022-12-16T20:35:45.095Z,29.75
2022-12-16T20:41:25.640Z,29.92
2022-12-16T20:47:06.528Z,29.84
2022-12-16T20:52:47.492Z,29.98
2022-12-16T20:58:27.946Z,30.54
2022-12-16T21:04:08.683Z,30.56
2022-12-16T21:09:49.660Z,30.62
2022-12-16T21:15:30.148Z,30.93
2022-12-16T21:21:14.360Z,31.26
2022-12-16T21:26:54.678Z,30.99
2022-12-16T21:32:41.007Z,31.40
2022-12-16T21:38:31.294Z,31.30
2022-12-16T21:44:11.299Z,31.86
2022-12-16T21:49:51.743Z,32.12
2022-12-16T21:55:32.403Z,32.27
2022-12-16T22:01:16.419Z,31.90
2022-12-16T22:07:10.490Z,31.95
2022-12-16T22:12:56.309Z,32.05
2022-12-16T22:18:39.443Z,32.19
2022-12-16T22:24:19.691Z,32.09
2022-12-16T22:30:00.266Z,31.95
2022-12-16T22:35:40.787Z,32.12
2022-12-16T22:41:22.556Z,32.22
2022-12-16T22:47:02.692Z,32.03
2022-12-16T22:52:42.980Z,31.82
2022-12-16T22:58:30.329Z,31.88
2022-12-16T23:04:10.604Z,31.75
2022-12-16T23:09:50.952Z,32.14
2022-12-16T23:15:33.853Z,32.13
2022-12-16T23:21:14.017Z,32.14
2022-12-16T23:26:54.075Z,31.89
2022-12-16T23:32:36.626Z,32.06
2022-12-16T23:38:24.890Z,31.86
2022-12-16T23:44:05.475Z,31.89
2022-12-16T23:49:45.827Z,31.75
2022-12-16T23:55:26.494Z,32.00
